Time;durP1;ratioP1;P1;durP2;ratioP2;P2;SDS_P1;SDS_P2;PMS_P1;PMS_P2;Temp;Humidity;BMP_temperature;BMP_pressure;BME280_temperature;BME280_humidity;BME280_pressure;Samples;Min_cycle;Max_cycle;Signal;HPM_P1;HPM_P2
2021/10/24 00:00:06;;;;;;;6.87;4.90;;;5.00;93.30;;;;;;5031677;28;20562;-74
2021/10/24 00:02:32;;;;;;;9.00;5.60;;;5.00;93.30;;;;;;5032624;28;20451;-73
2021/10/24 00:04:57;;;;;;;8.67;5.43;;;5.00;93.30;;;;;;5031192;28;20432;-74
2021/10/24 00:07:23;;;;;;;8.70;6.03;;;5.00;93.30;;;;;;5041237;28;20193;-73
2021/10/24 00:09:52;;;;;;;8.97;5.40;;;5.00;93.20;;;;;;5044598;28;20208;-73
2021/10/24 00:12:18;;;;;;;11.03;5.40;;;4.90;93.20;;;;;;5031364;28;20201;-75
2021/10/24 00:14:45;;;;;;;12.97;5.47;;;4.90;93.10;;;;;;5030953;28;20428;-74
2021/10/24 00:17:11;;;;;;;13.57;6.40;;;4.90;93.20;;;;;;5029440;28;20428;-73
2021/10/24 00:19:37;;;;;;;17.40;7.93;;;4.80;93.30;;;;;;5031396;28;20450;-75
2021/10/24 00:22:04;;;;;;;12.30;6.40;;;4.80;93.40;;;;;;5030893;28;20444;-74
2021/10/24 00:24:30;;;;;;;18.50;6.70;;;4.80;93.50;;;;;;5022342;28;21220;-73
2021/10/24 00:26:56;;;;;;;9.60;5.60;;;4.90;93.50;;;;;;5030660;28;20415;-72
2021/10/24 00:29:22;;;;;;;9.17;5.70;;;4.80;93.30;;;;;;5030850;28;20474;-73
2021/10/24 00:31:48;;;;;;;12.10;6.03;;;4.70;93.50;;;;;;5030965;28;20231;-74
2021/10/24 00:34:13;;;;;;;11.83;6.90;;;4.70;93.50;;;;;;5030423;28;20177;-74
2021/10/24 00:36:40;;;;;;;11.17;5.67;;;4.70;93.60;;;;;;5030493;28;20188;-73
2021/10/24 00:39:06;;;;;;;15.77;8.33;;;4.70;93.60;;;;;;5030705;28;20280;-73
2021/10/24 00:41:32;;;;;;;12.07;6.97;;;4.80;93.60;;;;;;5031032;28;20515;-73
2021/10/24 00:43:59;;;;;;;11.70;5.80;;;4.80;93.20;;;;;;5030615;28;20201;-72
2021/10/24 00:46:25;;;;;;;9.63;5.97;;;4.70;93.20;;;;;;5030892;28;20420;-73
2021/10/24 00:48:51;;;;;;;9.63;5.67;;;4.60;93.40;;;;;;5031066;28;20503;-72
2021/10/24 00:51:18;;;;;;;8.30;5.33;;;4.60;93.50;;;;;;5030550;28;20498;-74
2021/10/24 00:53:44;;;;;;;9.50;5.50;;;4.50;93.60;;;;;;5030055;28;21044;-72
2021/10/24 00:56:11;;;;;;;11.90;5.30;;;4.50;93.70;;;;;;5030314;28;20498;-73
2021/10/24 00:58:38;;;;;;;11.83;5.60;;;4.50;93.80;;;;;;5030694;28;20220;-75
2021/10/24 01:01:03;;;;;;;8.40;4.93;;;4.50;93.80;;;;;;5030477;28;20412;-75
2021/10/24 01:03:29;;;;;;;6.33;4.60;;;4.50;93.80;;;;;;5029743;28;20811;-74
2021/10/24 01:05:59;;;;;;;13.73;5.27;;;4.50;93.80;;;;;;5030090;28;20198;-74
2021/10/24 01:08:25;;;;;;;10.77;5.57;;;4.50;93.80;;;;;;5029547;28;20275;-73
2021/10/24 01:10:51;;;;;;;14.27;5.03;;;4.50;93.80;;;;;;5030429;28;20632;-72
2021/10/24 01:13:16;;;;;;;9.13;5.00;;;4.50;93.90;;;;;;5030535;28;20458;-74
2021/10/24 01:15:43;;;;;;;9.80;5.17;;;4.40;93.90;;;;;;5029881;28;20181;-75
2021/10/24 01:18:09;;;;;;;9.33;4.60;;;4.40;93.90;;;;;;5022914;28;20594;-71
2021/10/24 01:20:35;;;;;;;8.57;4.53;;;4.40;94.00;;;;;;5030651;28;20420;-75
2021/10/24 01:23:01;;;;;;;7.10;4.03;;;4.40;94.00;;;;;;5031314;28;20817;-74
2021/10/24 01:25:27;;;;;;;12.50;5.87;;;4.30;94.00;;;;;;5032761;28;20518;-73
2021/10/24 01:27:53;;;;;;;13.20;6.00;;;4.30;94.10;;;;;;5032783;28;20271;-72
2021/10/24 01:30:20;;;;;;;16.10;5.23;;;4.30;94.30;;;;;;5034159;28;20331;-72
2021/10/24 01:32:47;;;;;;;9.20;5.30;;;4.30;94.40;;;;;;5034208;28;20664;-74
2021/10/24 01:35:12;;;;;;;9.53;5.23;;;4.30;94.30;;;;;;5028951;28;20427;-73
2021/10/24 01:37:41;;;;;;;9.03;5.63;;;4.20;94.40;;;;;;5033585;28;20412;-74
2021/10/24 01:40:12;;;;;;;12.50;6.37;;;4.20;94.60;;;;;;5037705;28;20447;-71
2021/10/24 01:42:53;;;;;;;9.90;5.17;;;4.20;94.50;;;;;;5034585;28;20519;-72
2021/10/24 01:45:20;;;;;;;11.23;6.03;;;4.20;94.40;;;;;;5038936;28;20424;-72
2021/10/24 01:47:47;;;;;;;12.27;6.40;;;4.10;94.30;;;;;;5037901;28;20519;-73
2021/10/24 01:50:13;;;;;;;11.43;7.10;;;4.10;94.40;;;;;;5036785;28;21065;-74
2021/10/24 01:52:41;;;;;;;13.93;6.97;;;4.10;94.60;;;;;;5037961;28;20527;-73
2021/10/24 01:55:12;;;;;;;12.70;7.17;;;4.10;94.70;;;;;;5036545;28;21060;-73
2021/10/24 01:57:40;;;;;;;11.80;6.73;;;4.10;94.50;;;;;;5034463;28;20463;-74
2021/10/24 02:00:06;;;;;;;10.20;6.60;;;4.00;94.40;;;;;;5036349;28;20431;-74
2021/10/24 02:02:33;;;;;;;12.43;6.97;;;3.90;94.40;;;;;;5035100;28;20470;-74
2021/10/24 02:04:59;;;;;;;13.90;7.20;;;3.80;94.70;;;;;;5034266;28;20503;-74
2021/10/24 02:07:25;;;;;;;13.37;6.60;;;3.80;94.90;;;;;;5034264;28;20463;-74
2021/10/24 02:09:51;;;;;;;14.70;7.13;;;3.70;95.00;;;;;;5039653;28;20499;-73
2021/10/24 02:12:16;;;;;;;10.50;6.40;;;3.70;94.90;;;;;;5045512;28;20215;-73
2021/10/24 02:14:42;;;;;;;12.07;6.90;;;3.70;94.90;;;;;;5044439;28;20181;-73
2021/10/24 02:17:08;;;;;;;19.50;7.73;;;3.70;94.80;;;;;;5043614;28;20602;-75
2021/10/24 02:19:33;;;;;;;14.33;6.87;;;3.60;94.90;;;;;;5043964;28;20185;-75
2021/10/24 02:21:59;;;;;;;15.83;7.00;;;3.60;95.00;;;;;;5038442;28;20219;-72
2021/10/24 02:24:25;;;;;;;9.73;6.47;;;3.60;95.00;;;;;;5033000;28;20220;-73
2021/10/24 02:26:50;;;;;;;12.80;6.70;;;3.60;95.30;;;;;;5033159;28;20230;-74
2021/10/24 02:29:16;;;;;;;15.13;7.13;;;3.60;95.60;;;;;;5033441;28;20560;-73
2021/10/24 02:31:42;;;;;;;13.00;6.50;;;3.60;95.70;;;;;;5032213;28;20181;-74
2021/10/24 02:34:08;;;;;;;10.13;6.53;;;3.70;95.80;;;;;;5031830;28;20424;-72
2021/10/24 02:36:33;;;;;;;11.07;6.47;;;3.70;95.70;;;;;;5032943;28;20236;-74
2021/10/24 02:38:59;;;;;;;10.47;5.80;;;3.70;95.50;;;;;;5033828;28;20450;-74
2021/10/24 02:41:25;;;;;;;13.37;6.20;;;3.70;95.10;;;;;;5035417;28;20185;-73
2021/10/24 02:43:51;;;;;;;12.00;7.30;;;3.70;95.00;;;;;;5037593;28;20259;-73
2021/10/24 02:46:16;;;;;;;14.70;6.50;;;3.60;95.00;;;;;;5034441;28;20276;-75
2021/10/24 02:48:42;;;;;;;10.47;5.90;;;3.70;95.10;;;;;;5036597;28;20552;-74
2021/10/24 02:51:08;;;;;;;11.03;6.97;;;3.70;95.20;;;;;;5040791;28;20227;-73
2021/10/24 02:53:34;;;;;;;9.03;6.50;;;3.70;95.30;;;;;;5036929;28;20254;-74
2021/10/24 02:55:59;;;;;;;11.70;6.47;;;3.60;95.40;;;;;;5037202;28;20416;-75
2021/10/24 02:58:25;;;;;;;12.60;6.17;;;3.60;95.50;;;;;;5035950;28;20257;-74
2021/10/24 03:00:51;;;;;;;13.60;6.73;;;3.60;95.80;;;;;;5032518;28;20192;-75
2021/10/24 03:03:17;;;;;;;14.40;7.33;;;3.60;95.90;;;;;;5032516;28;20296;-75
2021/10/24 03:05:43;;;;;;;9.43;6.33;;;3.60;95.90;;;;;;5032902;28;20192;-73
2021/10/24 03:08:08;;;;;;;14.83;6.67;;;3.60;95.90;;;;;;5032623;28;20419;-73
2021/10/24 03:10:34;;;;;;;10.40;6.10;;;3.60;95.70;;;;;;5033990;28;20212;-73
2021/10/24 03:13:00;;;;;;;17.00;7.80;;;3.60;95.10;;;;;;5034541;28;20436;-75
2021/10/24 03:15:26;;;;;;;12.80;6.73;;;3.60;94.50;;;;;;5036529;28;20181;-75
2021/10/24 03:17:51;;;;;;;14.43;6.87;;;3.50;94.20;;;;;;5040296;28;20178;-74
2021/10/24 03:20:17;;;;;;;10.67;6.77;;;3.40;94.20;;;;;;5047469;28;20196;-73
2021/10/24 03:22:43;;;;;;;11.77;6.83;;;3.40;94.30;;;;;;5037210;28;20748;-74
2021/10/24 03:25:09;;;;;;;12.30;6.70;;;3.40;94.60;;;;;;5035969;28;20559;-73
2021/10/24 03:27:34;;;;;;;10.23;6.57;;;3.40;94.70;;;;;;5034412;28;20428;-74
2021/10/24 03:30:00;;;;;;;15.40;7.87;;;3.40;94.70;;;;;;5050236;28;20217;-71
2021/10/24 03:32:27;;;;;;;9.40;6.20;;;3.40;94.70;;;;;;5048043;28;20197;-71
2021/10/24 03:34:53;;;;;;;15.03;7.47;;;3.40;94.90;;;;;;5036577;28;20220;-74
2021/10/24 03:37:19;;;;;;;11.40;6.67;;;3.40;94.90;;;;;;5031393;28;20411;-74
2021/10/24 03:39:45;;;;;;;12.13;6.90;;;3.40;95.10;;;;;;5032918;28;21008;-75
2021/10/24 03:42:11;;;;;;;12.90;6.80;;;3.40;95.20;;;;;;5032486;28;20623;-73
2021/10/24 03:44:36;;;;;;;11.60;6.30;;;3.40;94.90;;;;;;5031560;28;20446;-73
2021/10/24 03:47:02;;;;;;;12.27;6.93;;;3.40;94.80;;;;;;5031206;28;20189;-73
2021/10/24 03:49:28;;;;;;;13.23;6.90;;;3.30;94.70;;;;;;5032118;28;20556;-73
2021/10/24 03:51:54;;;;;;;11.80;6.33;;;3.30;95.10;;;;;;5032025;28;20833;-73
2021/10/24 03:54:20;;;;;;;11.53;6.80;;;3.30;95.30;;;;;;5031432;28;20416;-72
2021/10/24 03:56:46;;;;;;;11.73;6.30;;;3.30;95.50;;;;;;5030307;28;20272;-72
2021/10/24 03:59:12;;;;;;;10.03;5.23;;;3.30;95.70;;;;;;5031284;28;20189;-74
2021/10/24 04:01:37;;;;;;;9.43;5.43;;;3.30;95.90;;;;;;5032630;28;20492;-73
2021/10/24 04:04:03;;;;;;;12.23;6.20;;;3.40;96.10;;;;;;5030540;28;20367;-74
2021/10/24 04:06:29;;;;;;;11.40;6.67;;;3.30;96.10;;;;;;5031757;28;20177;-72
2021/10/24 04:08:55;;;;;;;12.63;6.47;;;3.30;96.10;;;;;;5030725;28;20474;-74
2021/10/24 04:11:21;;;;;;;9.73;6.40;;;3.30;96.20;;;;;;5031219;28;20208;-74
2021/10/24 04:13:47;;;;;;;11.33;6.40;;;3.40;96.10;;;;;;5031672;28;20211;-74
2021/10/24 04:16:13;;;;;;;12.90;6.77;;;3.40;95.30;;;;;;5030671;28;20691;-73
2021/10/24 04:18:38;;;;;;;13.40;6.80;;;3.30;94.70;;;;;;5032229;28;20416;-75
2021/10/24 04:21:04;;;;;;;11.40;6.57;;;3.30;94.30;;;;;;5030919;28;20442;-73
2021/10/24 04:23:30;;;;;;;14.33;6.27;;;3.20;94.40;;;;;;5032682;28;20283;-74
2021/10/24 04:25:55;;;;;;;11.23;6.60;;;3.20;94.70;;;;;;5032564;28;20601;-73
2021/10/24 04:28:22;;;;;;;15.70;6.37;;;3.30;94.90;;;;;;5032164;28;20306;-75
2021/10/24 04:30:48;;;;;;;11.83;7.47;;;3.20;95.00;;;;;;5031971;28;20279;-74
2021/10/24 04:33:14;;;;;;;11.97;6.97;;;3.30;95.10;;;;;;5031916;28;21132;-73
2021/10/24 04:35:41;;;;;;;12.13;7.00;;;3.20;95.00;;;;;;5031211;28;20245;-74
2021/10/24 04:38:07;;;;;;;16.77;6.90;;;3.10;95.00;;;;;;5031981;28;20496;-74
2021/10/24 04:40:32;;;;;;;13.00;7.47;;;3.10;95.10;;;;;;5032154;28;20891;-75
2021/10/24 04:42:58;;;;;;;17.10;8.30;;;3.20;95.30;;;;;;5031582;28;20216;-74
2021/10/24 04:45:24;;;;;;;14.63;7.17;;;3.10;95.20;;;;;;5030600;28;20260;-74
2021/10/24 04:47:50;;;;;;;12.10;6.80;;;3.10;95.20;;;;;;5031875;28;20636;-75
2021/10/24 04:50:15;;;;;;;12.33;6.53;;;3.10;95.20;;;;;;5031478;28;20675;-73
2021/10/24 04:52:41;;;;;;;9.90;6.20;;;3.10;95.20;;;;;;5031804;28;20204;-75
2021/10/24 04:55:07;;;;;;;9.30;6.00;;;3.20;95.30;;;;;;5030979;28;20208;-74
2021/10/24 04:57:33;;;;;;;11.00;6.93;;;3.20;95.10;;;;;;5032178;28;20256;-75
2021/10/24 04:59:59;;;;;;;13.30;6.50;;;3.20;95.10;;;;;;5036241;28;20857;-75
2021/10/24 05:02:25;;;;;;;10.23;5.53;;;3.20;95.20;;;;;;5035762;28;20531;-73
2021/10/24 05:04:51;;;;;;;13.33;6.50;;;3.20;95.30;;;;;;5035010;28;20420;-73
2021/10/24 05:07:17;;;;;;;13.13;7.00;;;3.20;95.40;;;;;;5035152;28;20431;-73
2021/10/24 05:09:43;;;;;;;11.57;7.30;;;3.20;95.50;;;;;;5035470;28;20573;-74
2021/10/24 05:12:08;;;;;;;9.83;6.63;;;3.30;95.50;;;;;;5035450;28;20444;-75
2021/10/24 05:14:34;;;;;;;14.20;7.10;;;3.30;95.40;;;;;;5033052;28;20181;-75
2021/10/24 05:17:00;;;;;;;18.60;6.80;;;3.30;95.40;;;;;;5035206;28;20238;-74
2021/10/24 05:19:26;;;;;;;12.93;7.03;;;3.30;95.50;;;;;;5035551;28;20424;-74
2021/10/24 05:21:51;;;;;;;13.30;6.50;;;3.20;95.40;;;;;;5035199;28;20195;-74
2021/10/24 05:24:17;;;;;;;9.80;5.97;;;3.20;95.50;;;;;;5033221;28;20200;-75
2021/10/24 05:26:44;;;;;;;15.53;8.33;;;3.30;95.40;;;;;;5034647;28;20553;-74
2021/10/24 05:29:10;;;;;;;14.40;7.40;;;3.30;95.10;;;;;;5034999;28;20197;-74
2021/10/24 05:31:36;;;;;;;16.60;6.30;;;3.20;94.60;;;;;;5034916;28;20439;-74
2021/10/24 05:34:02;;;;;;;20.47;8.87;;;3.30;94.30;;;;;;5034363;28;21116;-74
2021/10/24 05:36:27;;;;;;;24.30;11.13;;;3.20;94.10;;;;;;5034656;28;20195;-74
2021/10/24 05:38:53;;;;;;;22.73;10.10;;;3.20;94.00;;;;;;5035578;28;20201;-75
2021/10/24 05:41:19;;;;;;;12.03;7.07;;;3.10;94.10;;;;;;5036022;28;20227;-73
2021/10/24 05:43:45;;;;;;;11.97;6.47;;;3.00;94.20;;;;;;5036217;28;20447;-75
2021/10/24 05:46:11;;;;;;;15.63;7.13;;;2.90;94.30;;;;;;5035395;28;20185;-73
2021/10/24 05:48:37;;;;;;;14.33;7.60;;;3.00;94.80;;;;;;5034664;28;20181;-72
2021/10/24 05:51:03;;;;;;;13.33;7.97;;;3.00;94.70;;;;;;5037519;28;20908;-72
2021/10/24 05:53:29;;;;;;;13.85;7.32;;;3.00;94.70;;;;;;5036637;28;20448;-73
2021/10/24 05:55:54;;;;;;;14.23;8.13;;;3.00;94.80;;;;;;5035270;28;20184;-74
2021/10/24 05:58:20;;;;;;;13.53;7.10;;;3.00;94.80;;;;;;5035333;28;20189;-74
2021/10/24 06:00:46;;;;;;;12.80;6.50;;;2.90;95.00;;;;;;5038773;28;20431;-73
2021/10/24 06:03:12;;;;;;;14.03;7.57;;;3.00;95.30;;;;;;5039686;28;20814;-74
2021/10/24 06:05:40;;;;;;;13.93;6.37;;;3.00;95.30;;;;;;5035187;28;20173;-73
2021/10/24 06:08:05;;;;;;;19.90;7.63;;;3.10;95.30;;;;;;5034294;28;20543;-73
2021/10/24 06:10:38;;;;;;;17.80;8.53;;;3.10;95.10;;;;;;5033290;28;20459;-73
2021/10/24 06:13:04;;;;;;;17.23;8.37;;;3.10;94.90;;;;;;5031269;28;20901;-73
2021/10/24 06:15:30;;;;;;;13.07;7.40;;;3.10;94.90;;;;;;5033271;28;20423;-74
2021/10/24 06:17:56;;;;;;;16.13;8.63;;;3.10;94.40;;;;;;5029638;28;20177;-73
2021/10/24 06:20:23;;;;;;;11.93;7.03;;;3.00;94.30;;;;;;5033539;28;20558;-75
2021/10/24 06:22:49;;;;;;;18.43;8.37;;;3.00;94.30;;;;;;5032670;28;20436;-74
2021/10/24 06:25:17;;;;;;;14.37;8.20;;;2.90;94.10;;;;;;5033051;28;20419;-74
2021/10/24 06:27:44;;;;;;;14.75;7.35;;;2.80;93.90;;;;;;5034019;28;20991;-73
2021/10/24 06:30:12;;;;;;;14.52;7.78;;;2.80;94.20;;;;;;5034305;28;20259;-72
2021/10/24 06:32:39;;;;;;;16.27;7.45;;;2.80;94.30;;;;;;5036968;28;20256;-74
2021/10/24 06:35:05;;;;;;;12.65;7.35;;;2.80;94.50;;;;;;5034731;28;20189;-72
2021/10/24 06:37:43;;;;;;;13.77;7.78;;;2.90;94.80;;;;;;5034808;28;20268;-74
2021/10/24 06:40:10;;;;;;;16.20;7.50;;;2.90;94.90;;;;;;5039672;28;20201;-73
2021/10/24 06:42:36;;;;;;;15.90;8.47;;;2.90;94.90;;;;;;5033886;28;20444;-72
2021/10/24 06:45:04;;;;;;;13.17;7.73;;;2.90;95.10;;;;;;5032740;28;20424;-72
2021/10/24 06:47:30;;;;;;;13.40;7.63;;;3.10;95.20;;;;;;5025548;28;20484;-74
2021/10/24 06:49:55;;;;;;;17.70;8.93;;;3.10;95.10;;;;;;5033567;28;21049;-72
2021/10/24 06:52:21;;;;;;;12.07;6.60;;;3.10;95.10;;;;;;5033409;28;20212;-72
2021/10/24 06:54:47;;;;;;;13.70;8.00;;;3.10;95.10;;;;;;5033120;28;20195;-72
2021/10/24 06:57:13;;;;;;;15.60;7.93;;;3.10;95.20;;;;;;5037299;28;20177;-73
2021/10/24 06:59:47;;;;;;;17.40;9.00;;;3.20;95.30;;;;;;5037767;28;20239;-74
2021/10/24 07:02:13;;;;;;;16.93;8.17;;;3.30;95.10;;;;;;5037472;28;20211;-73
2021/10/24 07:04:38;;;;;;;15.93;7.77;;;3.30;94.60;;;;;;5035458;28;20786;-75
2021/10/24 07:07:05;;;;;;;20.80;7.30;;;3.40;94.40;;;;;;5036850;28;20272;-74
2021/10/24 07:09:31;;;;;;;15.33;7.63;;;3.40;93.50;;;;;;5036039;28;20258;-73
2021/10/24 07:11:57;;;;;;;13.50;7.60;;;3.50;93.30;;;;;;5036525;28;20424;-72
2021/10/24 07:14:23;;;;;;;16.90;8.37;;;3.50;93.40;;;;;;5034996;28;20515;-72
2021/10/24 07:16:49;;;;;;;12.50;8.00;;;3.40;93.60;;;;;;5040240;28;20505;-72
2021/10/24 07:19:14;;;;;;;10.30;7.60;;;3.40;93.80;;;;;;5038705;28;20938;-74
2021/10/24 07:21:40;;;;;;;13.13;7.00;;;3.50;94.00;;;;;;5040832;28;20189;-72
2021/10/24 07:24:06;;;;;;;10.90;7.33;;;3.50;94.20;;;;;;5036592;28;20284;-74
2021/10/24 07:26:32;;;;;;;11.90;7.50;;;3.60;94.40;;;;;;5036725;28;20239;-72
2021/10/24 07:28:59;;;;;;;20.07;8.17;;;3.60;94.40;;;;;;5033312;28;20243;-72
2021/10/24 07:31:25;;;;;;;19.00;8.53;;;3.70;94.40;;;;;;5032654;28;20415;-73
2021/10/24 07:33:52;;;;;;;12.60;7.57;;;3.80;94.40;;;;;;5032042;28;20440;-72
2021/10/24 07:36:18;;;;;;;15.50;8.70;;;3.80;94.30;;;;;;5032279;28;20514;-73
2021/10/24 07:38:44;;;;;;;16.13;7.87;;;3.80;94.20;;;;;;5031183;28;21072;-74
2021/10/24 07:41:10;;;;;;;21.23;8.20;;;3.80;94.10;;;;;;5032326;28;20184;-73
2021/10/24 07:43:36;;;;;;;13.67;8.17;;;3.90;94.20;;;;;;5031773;28;20801;-72
2021/10/24 07:46:01;;;;;;;16.40;8.53;;;4.00;94.10;;;;;;5032571;28;20211;-74
2021/10/24 07:48:27;;;;;;;17.27;8.00;;;4.10;93.50;;;;;;5031957;28;20193;-73
2021/10/24 07:50:53;;;;;;;14.67;8.20;;;4.10;93.40;;;;;;5032702;28;20213;-73
2021/10/24 07:53:25;;;;;;;16.50;8.67;;;4.20;93.20;;;;;;5032102;28;20519;-74
2021/10/24 07:55:52;;;;;;;15.37;8.80;;;4.20;93.00;;;;;;5032176;28;20317;-76
2021/10/24 07:58:18;;;;;;;13.20;8.10;;;4.30;93.10;;;;;;5032225;28;20478;-74
2021/10/24 08:00:44;;;;;;;10.80;7.50;;;4.40;93.00;;;;;;5033150;28;20424;-74
2021/10/24 08:03:10;;;;;;;23.70;8.83;;;4.50;92.70;;;;;;5033046;28;20452;-75
2021/10/24 08:05:36;;;;;;;16.50;9.10;;;4.70;92.30;;;;;;5032346;28;20652;-74
2021/10/24 08:08:02;;;;;;;15.67;8.70;;;4.70;91.90;;;;;;5033830;28;20193;-76
2021/10/24 08:10:28;;;;;;;13.73;8.50;;;4.70;92.20;;;;;;5033486;28;20520;-76
2021/10/24 08:12:54;;;;;;;12.97;8.10;;;4.80;92.40;;;;;;5032388;28;20531;-75
2021/10/24 08:15:21;;;;;;;15.17;8.50;;;4.80;92.60;;;;;;5037145;28;20339;-76
2021/10/24 08:17:50;;;;;;;13.53;8.10;;;4.90;92.70;;;;;;5035783;28;20424;-76
2021/10/24 08:20:16;;;;;;;17.53;8.70;;;5.00;92.70;;;;;;5034905;28;20432;-77
2021/10/24 08:22:43;;;;;;;11.77;7.93;;;5.00;92.70;;;;;;5034510;28;20471;-76
2021/10/24 08:25:10;;;;;;;12.37;7.70;;;5.10;92.60;;;;;;5035707;28;20431;-77
2021/10/24 08:27:36;;;;;;;15.03;8.60;;;5.20;92.60;;;;;;5035985;28;20424;-75
2021/10/24 08:30:06;;;;;;;20.03;10.90;;;5.30;92.50;;;;;;5038726;28;20536;-77
2021/10/24 08:32:32;;;;;;;14.63;9.13;;;5.30;92.00;;;;;;5036571;28;20458;-75
2021/10/24 08:34:59;;;;;;;17.97;8.07;;;5.40;91.80;;;;;;5031470;28;21012;-76
2021/10/24 08:37:25;;;;;;;16.20;8.33;;;5.50;91.70;;;;;;5030669;28;20844;-76
2021/10/24 08:39:53;;;;;;;33.30;17.60;;;5.70;91.30;;;;;;5030372;28;20448;-76
2021/10/24 08:42:28;;;;;;;15.23;9.07;;;5.80;90.70;;;;;;5031580;28;20443;-77
2021/10/24 08:44:58;;;;;;;15.60;9.70;;;5.90;90.80;;;;;;5030518;28;20423;-75
2021/10/24 08:47:28;;;;;;;17.03;9.40;;;6.00;90.50;;;;;;5031574;28;20431;-75
2021/10/24 08:49:54;;;;;;;15.87;9.20;;;6.10;90.40;;;;;;5033305;28;20467;-77
2021/10/24 08:52:21;;;;;;;24.03;10.70;;;6.20;90.30;;;;;;5030944;28;20486;-75
2021/10/24 08:54:50;;;;;;;24.13;11.40;;;6.30;90.20;;;;;;5025650;28;20443;-75
2021/10/24 08:57:24;;;;;;;31.93;15.30;;;6.40;90.20;;;;;;5030733;28;20439;-73
2021/10/24 08:59:50;;;;;;;26.80;14.53;;;6.60;90.10;;;;;;5030088;28;20921;-74
2021/10/24 09:02:16;;;;;;;28.30;11.23;;;6.70;89.50;;;;;;5030593;28;20946;-75
2021/10/24 09:04:53;;;;;;;17.70;10.23;;;6.90;89.30;;;;;;5030833;28;20430;-75
2021/10/24 09:07:20;;;;;;;18.03;9.97;;;7.10;88.60;;;;;;5032666;28;20188;-75
2021/10/24 09:09:47;;;;;;;17.83;9.30;;;7.20;87.60;;;;;;5032174;28;20471;-76
2021/10/24 09:12:15;;;;;;;20.20;10.30;;;7.30;87.30;;;;;;5034831;28;20452;-75
2021/10/24 09:14:52;;;;;;;19.30;10.27;;;7.40;87.00;;;;;;5030643;28;20913;-74
2021/10/24 09:17:19;;;;;;;20.80;11.37;;;7.50;86.60;;;;;;5032760;28;20420;-76
2021/10/24 09:19:51;;;;;;;14.23;8.80;;;7.50;86.50;;;;;;5035115;28;21093;-74
2021/10/24 09:22:17;;;;;;;14.93;8.90;;;7.70;86.90;;;;;;5033340;28;20529;-74
2021/10/24 09:25:03;;;;;;;14.93;8.67;;;7.80;86.60;;;;;;5032479;28;20428;-73
2021/10/24 09:27:39;;;;;;;20.43;10.30;;;7.90;86.30;;;;;;5029936;28;20193;-75
2021/10/24 09:30:08;;;;;;;17.47;10.40;;;8.10;85.50;;;;;;5030207;28;20478;-76
2021/10/24 09:32:47;;;;;;;19.67;10.80;;;8.20;84.70;;;;;;5029104;28;20471;-76
2021/10/24 09:35:13;;;;;;;16.43;9.40;;;8.40;84.00;;;;;;5028947;28;20430;-76
2021/10/24 09:37:46;;;;;;;22.30;11.20;;;8.50;83.00;;;;;;5029024;28;20420;-75
2021/10/24 09:40:13;;;;;;;16.33;8.43;;;8.50;82.40;;;;;;5027645;28;20498;-75
2021/10/24 09:42:39;;;;;;;17.80;8.93;;;8.70;81.50;;;;;;5028416;28;20446;-73
2021/10/24 09:45:08;;;;;;;14.90;8.43;;;8.70;80.60;;;;;;5029115;28;20427;-75
2021/10/24 09:47:42;;;;;;;16.43;8.70;;;8.80;80.80;;;;;;5032756;28;20268;-75
2021/10/24 09:50:32;;;;;;;14.73;8.00;;;8.80;80.00;;;;;;5032268;28;20585;-74
2021/10/24 09:53:11;;;;;;;14.17;8.13;;;8.90;79.70;;;;;;5032231;28;20454;-75
2021/10/24 09:55:37;;;;;;;18.87;7.90;;;9.00;79.00;;;;;;5024934;28;20428;-75
2021/10/24 09:58:03;;;;;;;13.57;8.37;;;9.10;78.40;;;;;;5031371;28;20522;-74
2021/10/24 10:00:31;;;;;;;13.97;7.40;;;9.10;78.40;;;;;;5029725;28;20856;-73
2021/10/24 10:03:00;;;;;;;17.77;7.73;;;9.30;77.40;;;;;;5031843;28;20493;-74
2021/10/24 10:05:27;;;;;;;14.20;8.60;;;9.30;77.00;;;;;;5032111;28;20420;-75
2021/10/24 10:07:52;;;;;;;16.50;8.07;;;9.50;77.10;;;;;;5033357;28;20542;-75
2021/10/24 10:10:19;;;;;;;11.10;6.83;;;9.50;76.40;;;;;;5033454;28;21321;-75
2021/10/24 10:12:48;;;;;;;16.00;7.50;;;9.60;76.10;;;;;;5031098;28;20807;-75
2021/10/24 10:15:14;;;;;;;12.53;7.03;;;9.80;76.10;;;;;;5033496;28;20424;-74
2021/10/24 10:17:40;;;;;;;14.73;7.27;;;10.10;76.50;;;;;;5033112;28;20523;-75
2021/10/24 10:20:27;;;;;;;15.37;7.40;;;10.70;76.40;;;;;;5037987;28;20432;-74
2021/10/24 10:23:22;;;;;;;10.23;7.10;;;11.30;71.00;;;;;;5022534;28;20466;-75
2021/10/24 10:25:49;;;;;;;9.67;5.60;;;12.20;70.20;;;;;;5030880;28;20440;-76
2021/10/24 10:28:44;;;;;;;9.23;5.30;;;12.90;65.70;;;;;;5033861;28;20765;-76
2021/10/24 10:31:15;;;;;;;7.23;4.17;;;13.70;63.50;;;;;;5031862;28;20470;-75
2021/10/24 10:33:55;;;;;;;6.37;4.50;;;14.00;58.80;;;;;;5031406;28;21019;-75
2021/10/24 10:36:20;;;;;;;11.00;5.20;;;14.20;58.90;;;;;;5033987;28;20437;-74
2021/10/24 10:38:46;;;;;;;7.73;4.93;;;14.10;58.10;;;;;;5033230;28;20519;-76
2021/10/24 10:41:13;;;;;;;7.50;4.50;;;14.10;58.50;;;;;;5033558;28;20268;-75
2021/10/24 10:43:40;;;;;;;11.37;5.80;;;14.30;57.80;;;;;;5030548;28;20458;-76
2021/10/24 10:46:07;;;;;;;10.50;4.50;;;14.30;57.80;;;;;;5033608;28;20529;-75
2021/10/24 10:48:37;;;;;;;7.37;4.20;;;14.40;58.00;;;;;;5031972;28;20458;-76
2021/10/24 10:51:23;;;;;;;8.70;4.80;;;14.70;58.80;;;;;;5033206;28;20884;-76
2021/10/24 10:53:58;;;;;;;6.70;4.43;;;15.30;57.70;;;;;;5028918;28;20464;-75
2021/10/24 10:56:26;;;;;;;8.27;5.47;;;15.50;55.40;;;;;;5038107;28;20419;-76
2021/10/24 10:58:56;;;;;;;8.13;4.67;;;15.70;54.80;;;;;;5036936;28;20451;-74
2021/10/24 11:01:29;;;;;;;5.80;4.27;;;16.10;54.20;;;;;;5036867;28;20913;-76
2021/10/24 11:03:56;;;;;;;6.97;4.67;;;16.40;53.40;;;;;;5036562;28;20455;-75
2021/10/24 11:06:28;;;;;;;8.20;5.50;;;16.70;53.00;;;;;;5044966;28;20499;-75
2021/10/24 11:08:55;;;;;;;7.90;4.97;;;17.00;52.10;;;;;;5039228;28;20493;-77
2021/10/24 11:14:18;;;;;;;7.10;4.63;;;17.80;51.00;;;;;;5033744;28;20531;-75
2021/10/24 11:16:54;;;;;;;7.57;4.90;;;17.90;49.40;;;;;;5032945;28;20430;-76
2021/10/24 11:21:59;;;;;;;11.10;5.77;;;18.30;48.90;;;;;;5031794;28;20932;-75
2021/10/24 11:24:41;;;;;;;10.40;6.43;;;18.50;48.60;;;;;;5029827;28;20427;-77
2021/10/24 11:27:19;;;;;;;8.10;4.80;;;18.70;48.50;;;;;;5030862;28;20420;-76
2021/10/24 11:29:55;;;;;;;12.07;5.70;;;18.80;47.70;;;;;;5029770;28;20467;-74
2021/10/24 11:32:34;;;;;;;7.57;5.20;;;18.90;47.70;;;;;;5029464;28;20440;-75
2021/10/24 11:35:16;;;;;;;7.27;4.60;;;19.10;46.70;;;;;;5027462;28;20443;-75
2021/10/24 11:37:48;;;;;;;7.47;4.83;;;19.30;46.20;;;;;;5029563;28;20794;-76
2021/10/24 11:40:22;;;;;;;7.00;4.63;;;19.00;45.80;;;;;;5026447;28;20443;-74
2021/10/24 11:42:58;;;;;;;7.50;5.07;;;18.50;47.00;;;;;;5032181;28;20442;-74
2021/10/24 11:45:30;;;;;;;7.47;4.87;;;18.30;47.70;;;;;;5031193;28;20463;-75
2021/10/24 11:48:19;;;;;;;5.30;4.23;;;18.20;48.30;;;;;;5031751;28;20419;-75
2021/10/24 11:50:58;;;;;;;5.73;4.50;;;18.10;49.30;;;;;;5031539;28;20473;-77
2021/10/24 11:53:32;;;;;;;11.03;5.87;;;18.30;48.20;;;;;;5030231;28;20586;-76
2021/10/24 11:56:08;;;;;;;6.67;4.00;;;18.40;47.30;;;;;;5031746;28;20511;-76
2021/10/24 12:01:31;;;;;;;7.43;5.33;;;18.20;47.80;;;;;;5031451;28;20795;-74
2021/10/24 12:03:58;;;;;;;9.00;4.60;;;18.30;47.40;;;;;;5027696;28;20449;-74
2021/10/24 12:06:51;;;;;;;6.53;4.87;;;18.20;47.80;;;;;;5032076;28;20421;-75
2021/10/24 12:09:39;;;;;;;7.13;4.97;;;17.90;47.70;;;;;;5032284;28;20412;-76
2021/10/24 12:12:10;;;;;;;8.30;4.93;;;17.50;48.90;;;;;;5034532;28;20800;-75
2021/10/24 12:15:00;;;;;;;9.23;4.97;;;17.30;49.50;;;;;;5034799;28;20424;-73
2021/10/24 12:17:30;;;;;;;6.63;4.70;;;17.30;49.90;;;;;;5035892;28;20400;-75
2021/10/24 12:20:19;;;;;;;5.83;4.13;;;17.60;49.10;;;;;;5034291;28;21075;-76
2021/10/24 12:22:55;;;;;;;6.27;4.03;;;17.70;49.10;;;;;;5034002;28;20530;-75
2021/10/24 12:25:39;;;;;;;7.80;4.60;;;17.70;49.00;;;;;;5035357;28;20472;-76
2021/10/24 12:28:13;;;;;;;8.47;4.93;;;17.40;49.80;;;;;;5037262;28;20452;-75
2021/10/24 12:30:46;;;;;;;6.47;4.30;;;17.50;49.50;;;;;;5033580;28;20479;-76
2021/10/24 12:33:16;;;;;;;6.57;4.60;;;17.50;49.50;;;;;;5035363;28;20463;-78
2021/10/24 12:35:43;;;;;;;11.00;5.00;;;17.50;49.50;;;;;;5031549;28;20424;-74
2021/10/24 12:38:09;;;;;;;6.53;4.80;;;17.70;49.80;;;;;;5031046;28;20448;-75
2021/10/24 12:40:35;;;;;;;9.87;4.50;;;17.90;49.90;;;;;;5025606;28;20433;-73
2021/10/24 12:43:15;;;;;;;6.50;4.40;;;18.20;48.50;;;;;;5027776;28;20210;-76
2021/10/24 12:45:50;;;;;;;9.03;4.80;;;18.50;47.90;;;;;;5022015;28;20435;-76
2021/10/24 12:48:17;;;;;;;6.90;4.20;;;18.70;47.40;;;;;;5029013;28;20949;-75
2021/10/24 12:50:43;;;;;;;5.80;4.47;;;18.60;47.40;;;;;;5029306;28;20463;-75
2021/10/24 12:53:15;;;;;;;30.20;14.03;;;18.60;47.80;;;;;;5029758;28;20825;-76
2021/10/24 12:55:58;;;;;;;11.50;8.40;;;18.70;48.10;;;;;;5029027;28;20429;-75
2021/10/24 12:58:24;;;;;;;6.33;4.03;;;18.80;47.00;;;;;;5028686;28;20425;-77
2021/10/24 13:00:50;;;;;;;8.10;5.00;;;19.00;46.60;;;;;;5029447;28;20420;-74